PWSweather.com
Personal Weather Stations
Station Observations
INORDPAS37
Bondues, BonduesFR 59910

BonduesBonduesFR 59910

Lat: 50.7, Lon: 3.09

Elevation: 66

Station Type: NetAtmo

Latest ConditionsUpdated 11:28:00 PM GMT+01:01 Thursday, Dec 14, 2017
Currently Today's Max Today's Min Today's Average
Temperature 34.0°F1.1°C 41.2°F5.1°C 34.0°F1.1°C 38.7°F3.7°C
Dew Point 25.3°F-3.7°C 31.6°F-0.2°C 25.3°F-3.7°C 28.6°F-1.9°C
Winds 2.5 mph SW4.0 kmh SW 10.5 mph W16.9 kmh W - 5.1 mph 8.2 kmh
Wind Gusts 4.9 mph7.9 kmh 24.2 mph38.9 kmh - -
Humidity 76% 76% 65% 73%
Pressure 29.27 in991.2 mb 29.41 in995.9 mb 29.26 in990.9 mb -
Precipitation - 0.19 in4.8 mm - -
Hour Temp Dew Point Humidity Winds Wind Gusts Pressure Precip Precip Rate Daily Precip Total
11:28 PM 34.0°F1.1°C 25.3°F-3.7°C 76% 2.5 mph SW4.0 kmh SW 4.9 mph7.9 kmh 29.27 in991.2 mb 0.00 in0.0 mm 0.00 in0.0 mm 0.19 in4.8 mm
11:07 PM 34.0°F1.1°C 25.3°F-3.7°C 76% 1.8 mph SW2.9 kmh SW 3.8 mph6.1 kmh 29.27 in991.2 mb 0.00 in0.0 mm 0.00 in0.0 mm 0.19 in4.8 mm
10:47 PM 34.3°F1.3°C 25.7°F-3.5°C 76% 1.8 mph WSW2.9 kmh WSW 3.8 mph6.1 kmh 29.27 in991.2 mb 0.00 in0.0 mm 0.00 in0.0 mm 0.19 in4.8 mm
10:27 PM 34.3°F1.3°C 25.7°F-3.5°C 76% 2.5 mph SW4.0 kmh SW 4.3 mph6.9 kmh 29.28 in991.5 mb 0.00 in0.0 mm 0.00 in0.0 mm 0.19 in4.8 mm
10:07 PM 34.2°F1.2°C 25.5°F-3.6°C 76% 2.5 mph WSW4.0 kmh WSW 4.3 mph6.9 kmh 29.28 in991.5 mb 0.00 in0.0 mm 0.00 in0.0 mm 0.19 in4.8 mm
09:47 PM 34.7°F1.5°C 26.1°F-3.3°C 76% 2.5 mph SW4.0 kmh SW 6.9 mph11.1 kmh 29.27 in991.2 mb 0.00 in0.0 mm 0.00 in0.0 mm 0.19 in4.8 mm
09:27 PM 35.1°F1.7°C 26.4°F-3.1°C 76% 3.8 mph SW6.1 kmh SW 8.1 mph13.0 kmh 29.27 in991.2 mb 0.00 in0.0 mm 0.00 in0.0 mm 0.19 in4.8 mm
09:04 PM 35.4°F1.9°C 26.8°F-2.9°C 76% 4.3 mph SW6.9 kmh SW 8.7 mph14.0 kmh 29.28 in991.5 mb 0.00 in0.0 mm 0.00 in0.0 mm 0.19 in4.8 mm
08:45 PM 35.6°F2.0°C 27.0°F-2.8°C 76% 3.1 mph SW5.0 kmh SW 5.6 mph9.0 kmh 29.28 in991.5 mb 0.00 in0.0 mm 0.00 in0.0 mm 0.19 in4.8 mm
08:27 PM 35.8°F2.1°C 27.1°F-2.7°C 76% 3.1 mph SW5.0 kmh SW 7.4 mph11.9 kmh 29.28 in991.5 mb 0.00 in0.0 mm 0.00 in0.0 mm 0.19 in4.8 mm
08:06 PM 36.0°F2.2°C 27.3°F-2.6°C 76% 3.8 mph SW6.1 kmh SW 8.1 mph13.0 kmh 29.28 in991.5 mb 0.00 in0.0 mm 0.00 in0.0 mm 0.19 in4.8 mm
07:46 PM 35.8°F2.1°C 26.8°F-2.9°C 75% 4.9 mph SW7.9 kmh SW 11.2 mph18.0 kmh 29.28 in991.5 mb 0.00 in0.0 mm 0.00 in0.0 mm 0.19 in4.8 mm
07:25 PM 35.4°F1.9°C 26.4°F-3.1°C 75% 3.8 mph SW6.1 kmh SW 8.7 mph14.0 kmh 29.28 in991.5 mb 0.00 in0.0 mm 0.00 in0.0 mm 0.19 in4.8 mm
07:04 PM 35.1°F1.7°C 26.1°F-3.3°C 75% 3.8 mph SW6.1 kmh SW 8.1 mph13.0 kmh 29.28 in991.5 mb 0.00 in0.0 mm 0.00 in0.0 mm 0.19 in4.8 mm
06:44 PM 35.2°F1.8°C 26.2°F-3.2°C 75% 3.1 mph SSW5.0 kmh SSW 6.9 mph11.1 kmh 29.28 in991.5 mb 0.03 in0.8 mm 0.00 in0.0 mm 0.19 in4.8 mm
06:23 PM 36.0°F2.2°C 27.0°F-2.8°C 75% 4.3 mph SW6.9 kmh SW 9.4 mph15.1 kmh 29.28 in991.5 mb 0.06 in1.5 mm 0.00 in0.0 mm 0.19 in4.8 mm
06:15 PM 36.5°F2.5°C 27.5°F-2.5°C 75% 4.9 mph SSW7.9 kmh SSW 10.5 mph16.9 kmh 29.28 in991.5 mb 0.06 in1.5 mm 0.09 in2.3 mm 0.19 in4.8 mm
05:43 PM 37.6°F3.1°C 28.4°F-2.0°C 75% 4.9 mph WSW7.9 kmh WSW 9.8 mph15.8 kmh 29.30 in992.2 mb 0.02 in0.5 mm 0.06 in1.5 mm 0.15 in3.8 mm
05:27 PM 37.9°F3.3°C 28.8°F-1.8°C 75% 3.8 mph SW6.1 kmh SW 6.9 mph11.1 kmh 29.30 in992.2 mb 0.00 in0.0 mm 0.00 in0.0 mm 0.13 in3.3 mm
05:07 PM 37.9°F3.3°C 28.8°F-1.8°C 75% 3.8 mph SW6.1 kmh SW 9.8 mph15.8 kmh 29.30 in992.2 mb 0.01 in0.3 mm 0.00 in0.0 mm 0.13 in3.3 mm
04:46 PM 38.3°F3.5°C 29.1°F-1.6°C 75% 4.3 mph SW6.9 kmh SW 11.2 mph18.0 kmh 29.31 in992.6 mb 0.02 in0.5 mm 0.00 in0.0 mm 0.13 in3.3 mm
04:26 PM 38.7°F3.7°C 29.5°F-1.4°C 75% 4.9 mph SW7.9 kmh SW 11.2 mph18.0 kmh 29.30 in992.2 mb 0.04 in1.0 mm 0.02 in0.5 mm 0.13 in3.3 mm
04:06 PM 39.0°F3.9°C 29.8°F-1.2°C 75% 4.9 mph WSW7.9 kmh WSW 9.8 mph15.8 kmh 29.31 in992.6 mb 0.03 in0.8 mm 0.00 in0.0 mm 0.12 in3.0 mm
03:46 PM 39.6°F4.2°C 30.4°F-0.9°C 75% 6.9 mph WSW11.1 kmh WSW 11.9 mph19.2 kmh 29.33 in993.2 mb 0.03 in0.8 mm 0.02 in0.5 mm 0.10 in2.5 mm
03:25 PM 39.6°F4.2°C 30.0°F-1.1°C 74% 4.9 mph SW7.9 kmh SW 10.5 mph16.9 kmh 29.33 in993.2 mb 0.02 in0.5 mm 0.00 in0.0 mm 0.09 in2.3 mm
03:05 PM 39.6°F4.2°C 30.0°F-1.1°C 74% 3.1 mph SW5.0 kmh SW 6.9 mph11.1 kmh 29.33 in993.2 mb 0.03 in0.8 mm 0.02 in0.5 mm 0.09 in2.3 mm
02:45 PM 39.7°F4.3°C 30.2°F-1.0°C 74% 4.9 mph SW7.9 kmh SW 15.4 mph24.8 kmh 29.34 in993.6 mb 0.02 in0.5 mm 0.01 in0.3 mm 0.08 in2.0 mm
02:25 PM 39.9°F4.4°C 30.4°F-0.9°C 74% 3.8 mph SW6.1 kmh SW 10.5 mph16.9 kmh 29.35 in993.9 mb 0.01 in0.3 mm 0.04 in1.0 mm 0.07 in1.8 mm
02:05 PM 39.7°F4.3°C 30.2°F-1.0°C 74% 4.3 mph SW6.9 kmh SW 11.9 mph19.2 kmh 29.35 in993.9 mb 0.00 in0.0 mm 0.00 in0.0 mm 0.06 in1.5 mm
01:45 PM 39.7°F4.3°C 30.2°F-1.0°C 74% 4.3 mph SW6.9 kmh SW 9.4 mph15.1 kmh 29.36 in994.2 mb 0.00 in0.0 mm 0.00 in0.0 mm 0.06 in1.5 mm
01:25 PM 39.7°F4.3°C 30.2°F-1.0°C 74% 4.9 mph SW7.9 kmh SW 11.9 mph19.2 kmh 29.36 in994.2 mb 0.00 in0.0 mm 0.00 in0.0 mm 0.06 in1.5 mm
01:04 PM 39.6°F4.2°C 29.7°F-1.3°C 73% 4.9 mph SW7.9 kmh SW 11.9 mph19.2 kmh 29.38 in994.9 mb 0.00 in0.0 mm 0.01 in0.3 mm 0.06 in1.5 mm
12:44 PM 39.4°F4.1°C 29.5°F-1.4°C 73% 4.9 mph SW7.9 kmh SW 12.5 mph20.1 kmh 29.38 in994.9 mb 0.00 in0.0 mm 0.00 in0.0 mm 0.06 in1.5 mm
12:24 PM 39.6°F4.2°C 29.7°F-1.3°C 73% 5.6 mph SW9.0 kmh SW 9.8 mph15.8 kmh 29.39 in995.3 mb 0.00 in0.0 mm 0.00 in0.0 mm 0.06 in1.5 mm
12:04 PM 39.4°F4.1°C 29.5°F-1.4°C 73% 4.9 mph SW7.9 kmh SW 11.2 mph18.0 kmh 29.39 in995.3 mb 0.00 in0.0 mm 0.00 in0.0 mm 0.06 in1.5 mm
11:44 AM 39.0°F3.9°C 29.1°F-1.6°C 73% 5.6 mph SW9.0 kmh SW 13.6 mph21.9 kmh 29.40 in995.6 mb 0.00 in0.0 mm 0.00 in0.0 mm 0.06 in1.5 mm
11:24 AM 38.8°F3.8°C 28.9°F-1.7°C 73% 4.9 mph SW7.9 kmh SW 13.6 mph21.9 kmh 29.40 in995.6 mb 0.00 in0.0 mm 0.00 in0.0 mm 0.06 in1.5 mm
11:04 AM 38.7°F3.7°C 28.8°F-1.8°C 73% 5.6 mph SW9.0 kmh SW 11.9 mph19.2 kmh 29.41 in995.9 mb 0.00 in0.0 mm 0.00 in0.0 mm 0.06 in1.5 mm
10:43 AM 38.5°F3.6°C 28.2°F-2.1°C 72% 6.9 mph SW11.1 kmh SW 15.4 mph24.8 kmh 29.41 in995.9 mb 0.00 in0.0 mm 0.00 in0.0 mm 0.06 in1.5 mm
10:23 AM 38.8°F3.8°C 28.6°F-1.9°C 72% 4.3 mph SW6.9 kmh SW 10.5 mph16.9 kmh 29.41 in995.9 mb 0.00 in0.0 mm 0.00 in0.0 mm 0.06 in1.5 mm
10:03 AM 39.4°F4.1°C 29.1°F-1.6°C 72% 6.9 mph SW11.1 kmh SW 13.6 mph21.9 kmh 29.41 in995.9 mb 0.00 in0.0 mm 0.00 in0.0 mm 0.06 in1.5 mm
09:43 AM 39.6°F4.2°C 28.9°F-1.7°C 71% 4.9 mph SW7.9 kmh SW 9.8 mph15.8 kmh 29.41 in995.9 mb 0.00 in0.0 mm 0.00 in0.0 mm 0.06 in1.5 mm
09:22 AM 40.1°F4.5°C 29.5°F-1.4°C 71% 5.6 mph SW9.0 kmh SW 11.9 mph19.2 kmh 29.41 in995.9 mb 0.01 in0.3 mm 0.00 in0.0 mm 0.05 in1.3 mm
09:03 AM 40.5°F4.7°C 29.8°F-1.2°C 71% 4.3 mph WSW6.9 kmh WSW 13.6 mph21.9 kmh 29.41 in995.9 mb 0.02 in0.5 mm 0.01 in0.3 mm 0.05 in1.3 mm
08:42 AM 40.8°F4.9°C 30.2°F-1.0°C 71% 6.9 mph SW11.1 kmh SW 12.5 mph20.1 kmh 29.40 in995.6 mb 0.01 in0.3 mm 0.03 in0.8 mm 0.05 in1.3 mm
08:27 AM 40.8°F4.9°C 29.8°F-1.2°C 70% 5.6 mph WSW9.0 kmh WSW 11.2 mph18.0 kmh 29.40 in995.6 mb 0.00 in0.0 mm 0.01 in0.3 mm 0.04 in1.0 mm
08:08 AM 40.6°F4.8°C 29.7°F-1.3°C 70% 3.1 mph WSW5.0 kmh WSW 7.4 mph11.9 kmh 29.40 in995.6 mb 0.00 in0.0 mm 0.00 in0.0 mm 0.04 in1.0 mm
07:47 AM 40.6°F4.8°C 29.7°F-1.3°C 70% 3.1 mph SW5.0 kmh SW 7.4 mph11.9 kmh 29.40 in995.6 mb 0.00 in0.0 mm 0.00 in0.0 mm 0.04 in1.0 mm
07:27 AM 40.6°F4.8°C 29.7°F-1.3°C 70% 3.1 mph SW5.0 kmh SW 8.1 mph13.0 kmh 29.40 in995.6 mb 0.00 in0.0 mm 0.00 in0.0 mm 0.04 in1.0 mm
07:06 AM 40.8°F4.9°C 29.5°F-1.4°C 69% 3.8 mph WSW6.1 kmh WSW 8.7 mph14.0 kmh 29.40 in995.6 mb 0.00 in0.0 mm 0.00 in0.0 mm 0.04 in1.0 mm
06:47 AM 40.8°F4.9°C 29.5°F-1.4°C 69% 3.8 mph WSW6.1 kmh WSW 9.4 mph15.1 kmh 29.41 in995.9 mb 0.00 in0.0 mm 0.00 in0.0 mm 0.04 in1.0 mm
06:26 AM 40.8°F4.9°C 28.9°F-1.7°C 68% 4.3 mph WSW6.9 kmh WSW 9.8 mph15.8 kmh 29.41 in995.9 mb 0.00 in0.0 mm 0.00 in0.0 mm 0.04 in1.0 mm
06:06 AM 40.1°F4.5°C 28.4°F-2.0°C 68% 4.9 mph WSW7.9 kmh WSW 11.2 mph18.0 kmh 29.41 in995.9 mb 0.00 in0.0 mm 0.00 in0.0 mm 0.04 in1.0 mm
05:46 AM 39.7°F4.3°C 28.0°F-2.2°C 68% 4.9 mph WSW7.9 kmh WSW 10.5 mph16.9 kmh 29.41 in995.9 mb 0.00 in0.0 mm 0.00 in0.0 mm 0.04 in1.0 mm
05:26 AM 39.6°F4.2°C 27.5°F-2.5°C 67% 4.9 mph WSW7.9 kmh WSW 11.9 mph19.2 kmh 29.41 in995.9 mb 0.00 in0.0 mm 0.00 in0.0 mm 0.04 in1.0 mm
05:05 AM 39.6°F4.2°C 27.1°F-2.7°C 66% 5.6 mph W9.0 kmh W 11.9 mph19.2 kmh 29.41 in995.9 mb 0.00 in0.0 mm 0.00 in0.0 mm 0.04 in1.0 mm
04:45 AM 39.6°F4.2°C 27.1°F-2.7°C 66% 5.6 mph WSW9.0 kmh WSW 11.9 mph19.2 kmh 29.40 in995.6 mb 0.00 in0.0 mm 0.00 in0.0 mm 0.04 in1.0 mm
04:25 AM 39.6°F4.2°C 26.8°F-2.9°C 65% 6.9 mph WSW11.1 kmh WSW 13.0 mph20.9 kmh 29.40 in995.6 mb 0.00 in0.0 mm 0.00 in0.0 mm 0.04 in1.0 mm
04:04 AM 39.7°F4.3°C 27.0°F-2.8°C 65% 8.1 mph W13.0 kmh W 16.1 mph25.9 kmh 29.39 in995.3 mb 0.00 in0.0 mm 0.00 in0.0 mm 0.04 in1.0 mm
03:44 AM 40.1°F4.5°C 27.1°F-2.7°C 65% 8.1 mph W13.0 kmh W 15.4 mph24.8 kmh 29.38 in994.9 mb 0.00 in0.0 mm 0.00 in0.0 mm 0.04 in1.0 mm
03:24 AM 40.6°F4.8°C 27.7°F-2.4°C 65% 9.4 mph W15.1 kmh W 19.9 mph32.0 kmh 29.36 in994.2 mb 0.00 in0.0 mm 0.00 in0.0 mm 0.04 in1.0 mm
03:04 AM 41.0°F5.0°C 28.4°F-2.0°C 66% 9.4 mph W15.1 kmh W 21.0 mph33.8 kmh 29.35 in993.9 mb 0.00 in0.0 mm 0.00 in0.0 mm 0.04 in1.0 mm
02:43 AM 41.2°F5.1°C 28.9°F-1.7°C 67% 10.5 mph W16.9 kmh W 21.0 mph33.8 kmh 29.33 in993.2 mb 0.00 in0.0 mm 0.00 in0.0 mm 0.04 in1.0 mm
02:24 AM 41.0°F5.0°C 30.0°F-1.1°C 70% 8.7 mph W14.0 kmh W 23.0 mph37.0 kmh 29.31 in992.6 mb 0.00 in0.0 mm 0.00 in0.0 mm 0.04 in1.0 mm
02:02 AM 40.8°F4.9°C 30.6°F-0.8°C 72% 7.4 mph W11.9 kmh W 16.1 mph25.9 kmh 29.30 in992.2 mb 0.00 in0.0 mm 0.00 in0.0 mm 0.04 in1.0 mm
01:42 AM 40.6°F4.8°C 31.5°F-0.3°C 75% 8.1 mph W13.0 kmh W 17.4 mph28.0 kmh 29.28 in991.5 mb 0.00 in0.0 mm 0.00 in0.0 mm 0.04 in1.0 mm
01:21 AM 40.5°F4.7°C 31.6°F-0.2°C 76% 4.9 mph WSW7.9 kmh WSW 11.2 mph18.0 kmh 29.26 in990.9 mb 0.01 in0.3 mm 0.00 in0.0 mm 0.04 in1.0 mm
01:01 AM 40.3°F4.6°C 31.5°F-0.3°C 76% 8.1 mph WSW13.0 kmh WSW 14.3 mph23.0 kmh 29.26 in990.9 mb 0.04 in1.0 mm 0.00 in0.0 mm 0.04 in1.0 mm
12:41 AM 40.5°F4.7°C 31.3°F-0.4°C 75% 9.8 mph WSW15.8 kmh WSW 21.0 mph33.8 kmh 29.27 in991.2 mb 0.04 in1.0 mm 0.20 in5.1 mm 0.04 in1.0 mm
12:35 AM 40.5°F4.7°C 31.3°F-0.4°C 75% 9.4 mph WSW15.1 kmh WSW 24.2 mph38.9 kmh 29.28 in991.5 mb 0.02 in0.5 mm 0.03 in0.8 mm 0.02 in0.5 mm
12:07 AM 39.7°F4.3°C 30.6°F-0.8°C 75% 4.3 mph SW6.9 kmh SW 8.7 mph14.0 kmh 29.27 in991.2 mb 0.00 in0.0 mm 0.00 in0.0 mm 0.00 in0.0 mm